Terminal Aerodrome Forecast
Issued by NWS

Home | Current Version | Previous Version | Text Only | Print | Product List | Glossary On
Versions: 1 2 3 4 5 6 7 8 9 10 11 12 13 14 15 16 17 18 19 20 21 22 23 24 25 26 27 28
000
FTUS43 KGLD 131730
TAFMCK
TAF
KMCK 131730Z 1318/1418 18015G23KT P6SM SCT050
     FM140100 13007KT P6SM SKC
     FM141100 VRB03KT P6SM BKN012
     FM141500 13006KT P6SM FEW030=

USA.gov is the U.S. government's official web portal to all federal, state and local government web resources and services.